createdAt,value
2023-02-02T00:00:23.400Z,92.44
2023-02-02T00:02:52.656Z,92.55
2023-02-02T00:05:29.874Z,92.71
2023-02-02T00:08:00.733Z,92.85
2023-02-02T00:10:31.007Z,92.95
2023-02-02T00:13:01.403Z,93.01
2023-02-02T00:15:31.862Z,93.10
2023-02-02T00:18:01.659Z,93.11
2023-02-02T00:20:31.434Z,93.11
2023-02-02T00:23:02.085Z,93.10
2023-02-02T00:25:33.430Z,93.13
2023-02-02T00:28:04.978Z,93.23
2023-02-02T00:30:36.813Z,93.29
2023-02-02T00:33:10.206Z,93.33
2023-02-02T00:35:41.753Z,93.43
2023-02-02T00:38:12.953Z,93.47
2023-02-02T00:40:42.937Z,93.41
2023-02-02T00:43:13.365Z,93.38
2023-02-02T00:45:43.200Z,93.31
2023-02-02T00:48:13.632Z,93.27
2023-02-02T00:50:43.820Z,93.35
2023-02-02T00:53:14.818Z,93.31
2023-02-02T00:55:46.930Z,93.31
2023-02-02T00:58:16.533Z,93.29
2023-02-02T01:00:47.217Z,93.25
2023-02-02T01:03:18.108Z,93.28
2023-02-02T01:05:49.936Z,93.30
2023-02-02T01:08:21.572Z,93.25
2023-02-02T01:10:51.109Z,93.22
2023-02-02T01:13:23.388Z,93.10
2023-02-02T01:15:59.989Z,93.15
2023-02-02T01:18:29.915Z,93.20
2023-02-02T01:21:07.368Z,93.19
2023-02-02T01:23:39.138Z,93.21
2023-02-02T01:26:10.593Z,93.01
2023-02-02T01:28:40.141Z,92.96
2023-02-02T01:31:13.339Z,92.94
2023-02-02T01:33:43.774Z,92.97
2023-02-02T01:36:16.834Z,92.88
2023-02-02T01:38:47.171Z,92.85
2023-02-02T01:41:20.365Z,92.81
2023-02-02T01:43:54.759Z,92.68
2023-02-02T01:46:28.790Z,92.56
2023-02-02T01:49:06.404Z,92.57
2023-02-02T01:51:56.734Z,92.54
2023-02-02T01:54:34.721Z,92.54
2023-02-02T01:57:09.138Z,92.60
2023-02-02T01:59:38.822Z,92.50
2023-02-02T02:02:09.776Z,92.46
2023-02-02T02:04:39.913Z,92.39
2023-02-02T02:07:10.061Z,92.37
2023-02-02T02:09:40.021Z,92.39
2023-02-02T02:12:14.348Z,92.42
2023-02-02T02:15:06.562Z,92.35
2023-02-02T02:18:01.058Z,92.33
2023-02-02T02:21:28.968Z,92.21
2023-02-02T02:24:39.738Z,92.17
2023-02-02T02:27:29.891Z,92.27
2023-02-02T02:30:07.568Z,92.22
2023-02-02T02:32:43.336Z,92.30
2023-02-02T02:35:34.885Z,92.25
2023-02-02T02:38:40.174Z,92.09
2023-02-02T02:41:18.057Z,92.11
2023-02-02T02:44:03.893Z,92.16
2023-02-02T02:46:33.583Z,92.10
2023-02-02T02:49:02.861Z,92.01
2023-02-02T02:51:52.641Z,92.01
2023-02-02T02:54:34.056Z,92.02
2023-02-02T02:57:29.794Z,92.01
2023-02-02T03:00:16.406Z,92.04
2023-02-02T03:03:19.088Z,92.03
2023-02-02T03:05:56.617Z,92.10
2023-02-02T03:08:34.237Z,92.00
2023-02-02T03:11:05.620Z,92.02
2023-02-02T03:13:35.282Z,92.13
2023-02-02T03:16:05.935Z,92.10
2023-02-02T03:18:35.464Z,92.17
2023-02-02T03:21:05.766Z,92.20
2023-02-02T03:23:34.930Z,92.24
2023-02-02T03:26:04.782Z,92.27
2023-02-02T03:28:34.770Z,92.30
2023-02-02T03:31:04.687Z,92.26
2023-02-02T03:33:35.821Z,92.22
2023-02-02T03:36:06.067Z,92.22
2023-02-02T03:38:36.412Z,92.29
2023-02-02T03:41:06.555Z,92.26
2023-02-02T03:43:36.496Z,92.24
2023-02-02T03:46:06.402Z,92.13
2023-02-02T03:48:37.190Z,92.15
2023-02-02T03:51:12.166Z,92.18
2023-02-02T03:53:48.269Z,92.18
2023-02-02T03:56:19.390Z,92.28
2023-02-02T03:58:51.307Z,92.25
2023-02-02T04:01:28.495Z,92.16
2023-02-02T04:03:58.957Z,92.10
2023-02-02T04:06:28.313Z,92.09
2023-02-02T04:08:57.735Z,92.15
2023-02-02T04:11:27.361Z,92.12
2023-02-02T04:13:58.480Z,92.08
2023-02-02T04:16:28.342Z,92.04
2023-02-02T04:18:58.067Z,92.01
2023-02-02T04:21:27.600Z,92.04
2023-02-02T04:23:57.410Z,92.02
2023-02-02T04:26:28.398Z,92.08
2023-02-02T04:28:58.669Z,92.09
2023-02-02T04:31:29.731Z,92.05
2023-02-02T04:34:01.150Z,91.95
2023-02-02T04:36:30.705Z,91.96
2023-02-02T04:39:01.445Z,91.95
2023-02-02T04:41:30.894Z,91.84
2023-02-02T04:44:00.160Z,91.91
2023-02-02T04:46:32.216Z,91.92
2023-02-02T04:49:03.228Z,91.90
2023-02-02T04:51:34.043Z,91.89
2023-02-02T04:54:04.441Z,91.88
2023-02-02T04:56:35.398Z,91.80
2023-02-02T04:59:05.571Z,91.90
2023-02-02T05:01:36.498Z,91.91
2023-02-02T05:04:06.237Z,91.81
2023-02-02T05:06:39.131Z,91.89
2023-02-02T05:09:08.690Z,91.86
2023-02-02T05:11:39.160Z,91.80
2023-02-02T05:14:10.718Z,91.90
2023-02-02T05:16:42.456Z,91.89
2023-02-02T05:19:13.057Z,91.85
2023-02-02T05:21:45.339Z,91.87
2023-02-02T05:24:17.375Z,91.81
2023-02-02T05:26:47.640Z,91.84
2023-02-02T05:29:17.353Z,91.81
2023-02-02T05:31:47.607Z,91.91
2023-02-02T05:34:17.113Z,91.97
2023-02-02T05:36:47.587Z,91.92
2023-02-02T05:39:17.604Z,91.99
2023-02-02T05:41:48.621Z,92.07
2023-02-02T05:44:18.851Z,92.04
2023-02-02T05:46:48.393Z,92.12
2023-02-02T05:49:19.318Z,92.10
2023-02-02T05:51:52.517Z,92.12
2023-02-02T05:54:21.910Z,92.14
2023-02-02T05:56:53.048Z,92.17
2023-02-02T05:59:25.906Z,92.18
2023-02-02T06:01:56.105Z,92.24
2023-02-02T06:04:26.084Z,92.42
2023-02-02T06:06:56.202Z,92.52
2023-02-02T06:09:32.404Z,92.52
2023-02-02T06:12:02.755Z,92.63
2023-02-02T06:14:32.640Z,92.77
2023-02-02T06:17:01.894Z,92.90
2023-02-02T06:19:31.914Z,92.95
2023-02-02T06:22:01.844Z,92.98
2023-02-02T06:24:32.027Z,93.00
2023-02-02T06:27:02.082Z,92.97
2023-02-02T06:29:31.905Z,92.98
2023-02-02T06:32:01.776Z,93.05
2023-02-02T06:34:32.085Z,93.08
2023-02-02T06:37:01.592Z,92.94
2023-02-02T06:39:31.636Z,92.97
2023-02-02T06:42:19.340Z,92.93
2023-02-02T06:44:34.730Z,92.93
2023-02-02T06:47:04.589Z,92.94
2023-02-02T06:49:34.125Z,92.97
2023-02-02T06:52:03.709Z,92.87
2023-02-02T06:54:33.085Z,92.84
2023-02-02T06:57:03.426Z,92.82
2023-02-02T06:59:33.175Z,92.76
2023-02-02T07:02:02.792Z,92.65
2023-02-02T07:04:33.874Z,92.55
2023-02-02T07:07:04.718Z,92.57
2023-02-02T07:09:35.144Z,92.56
2023-02-02T07:12:05.128Z,92.36
2023-02-02T07:14:36.228Z,92.25
2023-02-02T07:17:06.500Z,92.19
2023-02-02T07:19:36.789Z,92.10
2023-02-02T07:22:06.110Z,91.92
2023-02-02T07:24:35.613Z,91.77
2023-02-02T07:27:06.378Z,91.53
2023-02-02T07:29:35.829Z,91.36
2023-02-02T07:32:07.147Z,91.34
2023-02-02T07:34:42.419Z,91.28
2023-02-02T07:37:13.055Z,91.25
2023-02-02T07:39:43.293Z,91.22
2023-02-02T07:42:15.019Z,91.12
2023-02-02T07:44:44.546Z,90.91
2023-02-02T07:47:13.745Z,90.57
2023-02-02T07:49:46.331Z,90.44
2023-02-02T07:52:16.255Z,90.38
2023-02-02T07:54:46.897Z,90.34
2023-02-02T07:57:18.616Z,90.22
2023-02-02T07:59:49.736Z,89.97
2023-02-02T08:02:19.977Z,89.96
2023-02-02T08:04:49.043Z,89.85
2023-02-02T08:07:20.275Z,89.66
2023-02-02T08:09:50.454Z,90.02
2023-02-02T08:12:25.533Z,89.84
2023-02-02T08:14:56.341Z,89.17
2023-02-02T08:17:25.999Z,88.65
2023-02-02T08:19:58.847Z,88.07
2023-02-02T08:22:28.349Z,87.30
2023-02-02T08:24:57.991Z,86.53
2023-02-02T08:27:28.069Z,85.86
2023-02-02T08:29:59.011Z,85.48
2023-02-02T08:32:49.858Z,85.27
2023-02-02T08:35:19.813Z,85.17
2023-02-02T08:37:49.738Z,84.63
2023-02-02T08:40:20.343Z,84.52
2023-02-02T08:42:55.331Z,84.36
2023-02-02T08:46:03.005Z,84.49
2023-02-02T08:48:10.843Z,84.46
2023-02-02T08:50:28.090Z,84.41
2023-02-02T08:52:56.934Z,84.38
2023-02-02T08:55:26.624Z,84.32
2023-02-02T08:57:56.859Z,84.05
2023-02-02T09:00:27.025Z,83.33
2023-02-02T09:03:00.494Z,83.62
2023-02-02T09:05:33.076Z,88.05
2023-02-02T09:08:03.289Z,89.74
2023-02-02T09:10:36.427Z,86.90
2023-02-02T09:13:06.331Z,85.67
2023-02-02T09:15:36.346Z,84.28
2023-02-02T09:18:06.054Z,83.00
2023-02-02T09:20:36.145Z,81.57
2023-02-02T09:23:04.967Z,79.33
2023-02-02T09:25:35.272Z,77.13
2023-02-02T09:28:07.162Z,75.64
2023-02-02T09:30:39.470Z,75.39
2023-02-02T09:33:09.793Z,75.91
2023-02-02T09:35:39.340Z,76.27
2023-02-02T09:38:09.563Z,76.67
2023-02-02T09:40:40.334Z,76.70
2023-02-02T09:43:48.037Z,77.02
2023-02-02T09:46:37.624Z,77.67
2023-02-02T09:49:11.180Z,78.48
2023-02-02T09:51:53.927Z,78.97
2023-02-02T09:54:34.999Z,79.32
2023-02-02T09:57:20.325Z,79.62
2023-02-02T09:59:50.976Z,80.13
2023-02-02T10:02:34.367Z,80.49
2023-02-02T10:05:17.199Z,80.73
2023-02-02T10:07:52.149Z,81.07
2023-02-02T10:10:30.659Z,80.82
2023-02-02T10:13:06.660Z,81.34
2023-02-02T10:15:49.003Z,81.45
2023-02-02T10:18:50.507Z,81.73
2023-02-02T10:21:50.097Z,81.97
2023-02-02T10:24:27.050Z,82.17
2023-02-02T10:27:09.834Z,82.16
2023-02-02T10:30:02.674Z,82.41
2023-02-02T10:33:01.748Z,82.62
2023-02-02T10:36:12.941Z,82.75
2023-02-02T10:39:12.561Z,82.85
2023-02-02T10:42:22.245Z,82.57
2023-02-02T10:45:20.824Z,82.68
2023-02-02T10:47:55.371Z,82.50
2023-02-02T10:50:28.180Z,82.19
2023-02-02T10:53:02.591Z,81.88
2023-02-02T10:55:39.048Z,81.28
2023-02-02T10:58:40.906Z,80.78
2023-02-02T11:01:11.862Z,80.26
2023-02-02T11:03:55.852Z,79.55
2023-02-02T11:06:44.960Z,79.50
2023-02-02T11:09:15.445Z,79.39
2023-02-02T11:11:52.442Z,79.29
2023-02-02T11:14:45.043Z,79.12
2023-02-02T11:17:21.677Z,79.04
2023-02-02T11:19:52.852Z,79.17
2023-02-02T11:22:38.813Z,78.40
2023-02-02T11:25:25.539Z,77.94
2023-02-02T11:27:55.662Z,77.33
2023-02-02T11:30:38.414Z,77.00
2023-02-02T11:33:34.322Z,76.65
2023-02-02T11:36:20.020Z,76.72
2023-02-02T11:38:50.440Z,76.81
2023-02-02T11:41:21.756Z,76.66
2023-02-02T11:43:53.729Z,76.43
2023-02-02T11:46:32.803Z,76.19
2023-02-02T11:49:09.375Z,75.73
2023-02-02T11:51:40.837Z,75.71
2023-02-02T11:54:20.596Z,75.37
2023-02-02T11:56:53.071Z,75.13
2023-02-02T11:59:43.676Z,75.09
2023-02-02T12:02:31.352Z,74.94
2023-02-02T12:05:23.911Z,74.41
2023-02-02T12:07:54.291Z,74.51
2023-02-02T12:10:36.749Z,74.49
2023-02-02T12:13:12.555Z,74.63
2023-02-02T12:20:16.840Z,74.21
2023-02-02T12:23:08.562Z,74.44
2023-02-02T12:25:53.649Z,74.54
2023-02-02T12:28:43.491Z,74.25
2023-02-02T12:31:37.034Z,74.38
2023-02-02T12:35:00.517Z,74.40
2023-02-02T12:38:05.536Z,74.24
2023-02-02T12:40:46.792Z,74.46
2023-02-02T12:43:36.524Z,74.11
2023-02-02T12:46:35.249Z,74.37
2023-02-02T12:49:54.741Z,74.39
2023-02-02T12:53:01.002Z,74.18
2023-02-02T12:56:13.138Z,74.35
2023-02-02T12:59:07.089Z,74.63
2023-02-02T13:02:04.661Z,74.33
2023-02-02T13:04:54.807Z,74.15
2023-02-02T13:12:01.586Z,74.09
2023-02-02T13:15:14.610Z,73.99
2023-02-02T13:18:24.654Z,73.95
2023-02-02T13:21:09.210Z,74.01
2023-02-02T13:23:52.305Z,73.75
2023-02-02T13:26:36.095Z,73.52
2023-02-02T13:29:48.392Z,73.69
2023-02-02T13:32:41.189Z,74.00
2023-02-02T13:35:37.479Z,74.09
2023-02-02T13:38:23.027Z,74.58
2023-02-02T13:40:58.358Z,74.96
2023-02-02T13:43:51.272Z,75.27
2023-02-02T13:46:57.204Z,75.40
2023-02-02T13:49:40.806Z,75.73
2023-02-02T13:52:34.249Z,76.10
2023-02-02T13:55:48.532Z,76.25
2023-02-02T13:58:38.534Z,76.51
2023-02-02T14:01:10.990Z,76.84
2023-02-02T14:03:55.123Z,77.13
2023-02-02T14:06:26.412Z,77.45
2023-02-02T14:09:03.142Z,77.78
2023-02-02T14:11:38.162Z,78.04
2023-02-02T14:14:32.762Z,78.10
2023-02-02T14:17:19.706Z,78.34
2023-02-02T14:19:58.480Z,79.38
2023-02-02T14:22:43.589Z,79.18
2023-02-02T14:25:41.565Z,79.14
2023-02-02T14:28:40.319Z,79.12
2023-02-02T14:31:31.569Z,79.17
2023-02-02T14:34:28.286Z,79.37
2023-02-02T14:37:22.476Z,79.51
2023-02-02T14:39:59.912Z,79.54
2023-02-02T14:43:00.989Z,79.75
2023-02-02T14:45:35.466Z,80.67
2023-02-02T14:48:23.634Z,80.58
2023-02-02T14:50:58.672Z,81.15
2023-02-02T14:53:37.365Z,80.94
2023-02-02T14:56:14.231Z,80.94
2023-02-02T14:58:59.343Z,80.98
2023-02-02T15:01:35.597Z,81.30
2023-02-02T15:04:22.305Z,81.67
2023-02-02T15:06:53.689Z,82.52
2023-02-02T15:09:26.979Z,83.11
2023-02-02T15:12:10.795Z,83.62
2023-02-02T15:14:58.447Z,84.03
2023-02-02T15:20:29.077Z,84.71
2023-02-02T15:23:24.828Z,85.10
2023-02-02T15:26:25.038Z,85.36
2023-02-02T15:29:04.186Z,85.66
2023-02-02T15:31:44.058Z,86.02
2023-02-02T15:34:39.262Z,86.56
2023-02-02T15:37:10.484Z,86.97
2023-02-02T15:39:41.959Z,87.49
2023-02-02T15:42:54.826Z,87.90
2023-02-02T15:45:47.646Z,88.07
2023-02-02T15:48:31.228Z,88.28
2023-02-02T15:51:04.092Z,88.53
2023-02-02T15:53:45.585Z,88.76
2023-02-02T15:56:32.473Z,88.95
2023-02-02T15:59:01.345Z,89.37
2023-02-02T16:01:31.935Z,89.77
2023-02-02T16:04:29.000Z,89.98
2023-02-02T16:06:58.176Z,90.14
2023-02-02T16:09:30.097Z,90.35
2023-02-02T16:12:01.447Z,90.54
2023-02-02T16:14:30.311Z,90.69
2023-02-02T16:17:24.733Z,91.00
2023-02-02T16:20:03.107Z,91.28
2023-02-02T16:22:32.615Z,91.58
2023-02-02T16:25:03.369Z,91.88
2023-02-02T16:27:32.862Z,92.18
2023-02-02T16:30:08.678Z,92.39
2023-02-02T16:32:40.124Z,92.74
2023-02-02T16:35:35.145Z,93.05
2023-02-02T16:38:33.142Z,93.25
2023-02-02T16:41:11.437Z,93.57
2023-02-02T16:43:42.585Z,93.74
2023-02-02T16:46:16.171Z,93.93
2023-02-02T16:48:59.612Z,94.18
2023-02-02T16:51:33.716Z,94.42
2023-02-02T16:54:13.342Z,94.65
2023-02-02T16:56:45.218Z,94.74
2023-02-02T16:59:34.099Z,94.93
2023-02-02T17:02:21.008Z,95.06
2023-02-02T17:04:55.814Z,95.12
2023-02-02T17:07:24.550Z,94.97
2023-02-02T17:10:20.255Z,94.97
2023-02-02T17:12:48.697Z,94.99
2023-02-02T17:15:23.594Z,95.04
2023-02-02T17:17:53.311Z,95.19
2023-02-02T17:20:22.560Z,95.08
2023-02-02T17:22:56.446Z,95.10
2023-02-02T17:25:36.982Z,95.22
2023-02-02T17:28:12.702Z,95.25
2023-02-02T17:30:45.987Z,95.24
2023-02-02T17:33:17.658Z,95.18
2023-02-02T17:35:54.835Z,95.06
2023-02-02T17:38:18.278Z,95.12
2023-02-02T17:40:48.078Z,95.04
2023-02-02T17:43:16.438Z,94.95
2023-02-02T17:45:47.223Z,94.96
2023-02-02T17:48:17.797Z,95.02
2023-02-02T17:50:47.573Z,94.94
2023-02-02T17:53:20.165Z,94.78
2023-02-02T17:55:52.080Z,94.67
2023-02-02T17:58:21.603Z,94.60
2023-02-02T18:00:53.444Z,94.65
2023-02-02T18:03:30.548Z,94.70
2023-02-02T18:06:01.649Z,94.81
2023-02-02T18:08:31.179Z,94.78
2023-02-02T18:11:01.466Z,94.79
2023-02-02T18:13:30.533Z,94.71
2023-02-02T18:15:59.480Z,94.57
2023-02-02T18:18:29.663Z,94.62
2023-02-02T18:20:58.980Z,94.65
2023-02-02T18:23:28.323Z,94.70
2023-02-02T18:25:58.412Z,94.79
2023-02-02T18:28:27.620Z,94.83
2023-02-02T18:30:57.795Z,94.79
2023-02-02T18:33:26.731Z,94.90
2023-02-02T18:35:58.387Z,94.96
2023-02-02T18:38:27.788Z,94.78
2023-02-02T18:41:01.823Z,94.73
2023-02-02T18:43:31.902Z,94.84
2023-02-02T18:46:08.571Z,94.88
2023-02-02T18:48:37.261Z,94.95
2023-02-02T18:51:08.273Z,94.87
2023-02-02T18:53:37.574Z,94.80
2023-02-02T18:56:07.925Z,94.81
2023-02-02T18:58:37.201Z,94.81
2023-02-02T19:01:15.187Z,94.84
2023-02-02T19:03:49.158Z,94.81
2023-02-02T19:06:36.475Z,94.78
2023-02-02T19:09:06.221Z,94.83
2023-02-02T19:11:38.866Z,94.76
2023-02-02T19:14:26.812Z,94.79
2023-02-02T19:17:16.626Z,94.83
2023-02-02T19:19:46.606Z,94.88
2023-02-02T19:22:26.667Z,94.97
2023-02-02T19:24:56.806Z,94.96
2023-02-02T19:27:28.861Z,94.99
2023-02-02T19:30:00.780Z,95.15
2023-02-02T19:32:33.343Z,95.10
2023-02-02T19:35:02.869Z,95.10
2023-02-02T19:37:32.936Z,95.11
2023-02-02T19:40:13.981Z,95.10
2023-02-02T19:42:45.651Z,95.15
2023-02-02T19:45:30.348Z,95.24
2023-02-02T19:48:01.910Z,95.24
2023-02-02T19:50:40.848Z,95.09
2023-02-02T19:53:38.215Z,94.98
2023-02-02T19:56:29.886Z,95.01
2023-02-02T19:58:59.265Z,95.16
2023-02-02T20:01:29.873Z,95.30
2023-02-02T20:03:58.874Z,95.31
2023-02-02T20:06:32.021Z,95.23
2023-02-02T20:09:04.603Z,95.18
2023-02-02T20:11:38.775Z,95.15
2023-02-02T20:14:32.971Z,95.28
2023-02-02T20:17:14.047Z,95.41
2023-02-02T20:19:42.770Z,95.38
2023-02-02T20:22:20.284Z,95.51
2023-02-02T20:24:49.950Z,95.60
2023-02-02T20:27:25.748Z,95.72
2023-02-02T20:29:57.312Z,95.71
2023-02-02T20:32:38.789Z,95.62
2023-02-02T20:35:24.880Z,95.55
2023-02-02T20:37:55.882Z,95.55
2023-02-02T20:40:29.172Z,95.58
2023-02-02T20:42:58.485Z,95.48
2023-02-02T20:45:28.842Z,95.46
2023-02-02T20:47:58.193Z,95.52
2023-02-02T20:50:27.595Z,95.52
2023-02-02T20:52:58.984Z,95.56
2023-02-02T20:55:28.136Z,95.60
2023-02-02T20:57:58.583Z,95.64
2023-02-02T21:00:28.067Z,95.71
2023-02-02T21:02:57.435Z,95.66
2023-02-02T21:05:26.457Z,95.56
2023-02-02T21:07:55.206Z,95.45
2023-02-02T21:10:25.218Z,95.36
2023-02-02T21:12:54.231Z,95.42
2023-02-02T21:15:23.213Z,95.53
2023-02-02T21:17:52.427Z,95.56
2023-02-02T21:20:21.503Z,95.55
2023-02-02T21:22:52.586Z,95.62
2023-02-02T21:25:21.367Z,95.63
2023-02-02T21:27:54.023Z,95.67
2023-02-02T21:30:22.607Z,95.71
2023-02-02T21:32:51.547Z,95.71
2023-02-02T21:35:22.763Z,95.65
2023-02-02T21:37:54.106Z,95.67
2023-02-02T21:40:30.062Z,95.78
2023-02-02T21:43:01.749Z,95.72
2023-02-02T21:45:34.845Z,95.77
2023-02-02T21:48:08.075Z,95.88
2023-02-02T21:50:41.138Z,95.92
2023-02-02T21:53:20.760Z,95.85
2023-02-02T21:55:55.650Z,95.84
2023-02-02T21:58:37.904Z,95.91
2023-02-02T22:01:36.942Z,95.82
2023-02-02T22:04:28.475Z,95.76
2023-02-02T22:07:02.251Z,95.89
2023-02-02T22:09:40.386Z,95.95
2023-02-02T22:12:21.428Z,95.88
2023-02-02T22:14:52.160Z,95.93
2023-02-02T22:17:28.166Z,96.03
2023-02-02T22:20:00.760Z,96.02
2023-02-02T22:22:35.537Z,96.00
2023-02-02T22:25:25.189Z,95.93
2023-02-02T22:27:57.392Z,96.01
2023-02-02T22:30:39.986Z,96.13
2023-02-02T22:33:10.545Z,96.14
2023-02-02T22:35:41.444Z,96.15
2023-02-02T22:38:10.880Z,96.20
2023-02-02T22:40:40.399Z,96.26
2023-02-02T22:43:09.565Z,96.28
2023-02-02T22:45:39.778Z,96.30
2023-02-02T22:48:09.387Z,96.34
2023-02-02T22:50:38.300Z,96.29
2023-02-02T22:53:08.008Z,96.28
2023-02-02T22:55:39.605Z,96.22
2023-02-02T22:58:12.357Z,96.09
2023-02-02T23:00:43.240Z,96.05
2023-02-02T23:03:18.728Z,96.04
2023-02-02T23:05:47.604Z,96.00
2023-02-02T23:08:16.230Z,95.90
2023-02-02T23:10:47.490Z,95.92
2023-02-02T23:13:17.711Z,95.91
2023-02-02T23:15:46.423Z,95.86
2023-02-02T23:18:15.426Z,95.86
2023-02-02T23:20:46.053Z,95.82
2023-02-02T23:23:15.029Z,95.89
2023-02-02T23:25:43.876Z,95.90
2023-02-02T23:28:13.478Z,95.93
2023-02-02T23:30:43.444Z,95.90
2023-02-02T23:33:12.137Z,95.81
2023-02-02T23:35:41.391Z,95.85
2023-02-02T23:38:09.999Z,95.94
2023-02-02T23:40:38.901Z,95.96
2023-02-02T23:43:07.431Z,95.91
2023-02-02T23:45:39.580Z,95.85
2023-02-02T23:48:08.309Z,95.78
2023-02-02T23:50:38.607Z,95.81
2023-02-02T23:53:08.209Z,95.87
2023-02-02T23:55:38.008Z,95.94
2023-02-02T23:58:06.729Z,95.97
